UAE317 RJBB-OMDB
Flight info
| Callsign | UAE317 |
|---|---|
| Flight time | N/A |
| Altitude | 40000 |
| Route | RINKU1 MAIKO DCT OSRIX DCT SHION DCT HABAR Y60 ISAKY Y592 ONIKU A593 LAMEN/K0915F400 A593 AKARA/K0915S1220 A593 PK R343 MADUK W51 LEGIV W164 ADGOL W50 XSH W80 IDGAG A581 QNX W136 XISLI A581 SGM A599 LINSO/N0490F400 A599 CTG B465 CEA A791 BPL L639 RASKI L301 RAGMA N571 VUSET A454 PASOV B540 MIVEK P574 IMPED IMPED3C |
| Aircraft | A388/J-SADE2E3FGHIJ3J4J5M1RWXY/LB1D1 |
Departure
| Time | 2026-05-06 21:40 |
|---|---|
| Airport | Kansai International Airport (RJBB) |
Arrival
| Time | N/A |
|---|---|
| Airport | Dubai International Airport (OMDB) |
| Time | Latitude | Longitude | Altitude | Speed | Heading |
|---|---|---|---|---|---|
| 2026-05-06 21:03 | 34.42954 | 135.23922 | 24 ft | 0 kts | 321° |
| 2026-05-06 21:27 | 34.42938 | 135.23938 | 29 ft | 4 kts | 321° |
| 2026-05-06 21:28 | 34.42917 | 135.23958 | 29 ft | 4 kts | 321° |
| 2026-05-06 21:28 | 34.42899 | 135.23977 | 24 ft | 4 kts | 308° |
| 2026-05-06 21:28 | 34.42892 | 135.23993 | 29 ft | 4 kts | 265° |
| 2026-05-06 21:28 | 34.42896 | 135.24002 | 24 ft | 4 kts | 217° |
| 2026-05-06 21:29 | 34.42918 | 135.24021 | 27 ft | 4 kts | 220° |
| 2026-05-06 21:29 | 34.42929 | 135.24035 | 24 ft | 2 kts | 231° |
| 2026-05-06 21:31 | 34.42922 | 135.24024 | 24 ft | 4 kts | 231° |
| 2026-05-06 21:31 | 34.42896 | 135.23985 | 25 ft | 9 kts | 231° |
| 2026-05-06 21:31 | 34.42844 | 135.23909 | 28 ft | 15 kts | 231° |
| 2026-05-06 21:31 | 34.42779 | 135.23797 | 29 ft | 13 kts | 269° |
| 2026-05-06 21:32 | 34.42822 | 135.23724 | 28 ft | 12 kts | 314° |
| 2026-05-06 21:32 | 34.42976 | 135.23572 | 28 ft | 16 kts | 322° |
| 2026-05-06 21:32 | 34.43010 | 135.23470 | 27 ft | 12 kts | 242° |
| 2026-05-06 21:33 | 34.42979 | 135.23373 | 24 ft | 13 kts | 260° |
| 2026-05-06 21:33 | 34.43007 | 135.23312 | 29 ft | 8 kts | 316° |
| 2026-05-06 21:33 | 34.43047 | 135.23270 | 27 ft | 9 kts | 321° |
| 2026-05-06 21:33 | 34.43101 | 135.23217 | 27 ft | 12 kts | 321° |
| 2026-05-06 21:34 | 34.43168 | 135.23152 | 30 ft | 12 kts | 321° |
| 2026-05-06 21:34 | 34.43231 | 135.23091 | 33 ft | 11 kts | 321° |
| 2026-05-06 21:34 | 34.43326 | 135.23000 | 34 ft | 28 kts | 322° |
| 2026-05-06 21:34 | 34.43478 | 135.22856 | 34 ft | 27 kts | 322° |
| 2026-05-06 21:35 | 34.43617 | 135.22713 | 34 ft | 25 kts | 321° |
| 2026-05-06 21:35 | 34.43754 | 135.22582 | 34 ft | 25 kts | 322° |
| 2026-05-06 21:35 | 34.43829 | 135.22507 | 34 ft | 3 kts | 302° |
| 2026-05-06 21:35 | 34.43811 | 135.22396 | 34 ft | 26 kts | 243° |
| 2026-05-06 21:36 | 34.43672 | 135.22175 | 34 ft | 34 kts | 230° |
| 2026-05-06 21:36 | 34.43529 | 135.21965 | 34 ft | 31 kts | 230° |
| 2026-05-06 21:36 | 34.43396 | 135.21769 | 34 ft | 29 kts | 230° |
| 2026-05-06 21:36 | 34.43271 | 135.21584 | 34 ft | 28 kts | 230° |
| 2026-05-06 21:37 | 34.43152 | 135.21409 | 34 ft | 26 kts | 230° |
| 2026-05-06 21:37 | 34.43038 | 135.21240 | 34 ft | 25 kts | 230° |
| 2026-05-06 21:37 | 34.42933 | 135.21080 | 34 ft | 24 kts | 231° |
| 2026-05-06 21:37 | 34.42831 | 135.20925 | 34 ft | 23 kts | 231° |
| 2026-05-06 21:38 | 34.42761 | 135.20802 | 34 ft | 10 kts | 265° |
| 2026-05-06 21:38 | 34.42795 | 135.20719 | 31 ft | 14 kts | 301° |
| 2026-05-06 21:38 | 34.42867 | 135.20664 | 30 ft | 13 kts | 11° |
| 2026-05-06 21:38 | 34.42930 | 135.20722 | 30 ft | 12 kts | 53° |
| 2026-05-06 21:39 | 34.42946 | 135.20749 | 30 ft | 14 kts | 53° |
| 2026-05-06 21:39 | 34.43173 | 135.21087 | 35 ft | 89 kts | 50° |
| 2026-05-06 21:39 | 34.43694 | 135.21867 | 37 ft | 145 kts | 49° |
| 2026-05-06 21:39 | 34.44421 | 135.22908 | 109 ft | 173 kts | 51° |
| 2026-05-06 21:40 | 34.45237 | 135.24009 | 404 ft | 183 kts | 46° |
| 2026-05-06 21:40 | 34.46268 | 135.24980 | 713 ft | 190 kts | 23° |
| 2026-05-06 21:40 | 34.47511 | 135.25111 | 1365 ft | 177 kts | 342° |
| 2026-05-06 21:40 | 34.48513 | 135.24273 | 1784 ft | 183 kts | 304° |
| 2026-05-06 21:41 | 34.48893 | 135.22784 | 1948 ft | 197 kts | 268° |
| 2026-05-06 21:41 | 34.48593 | 135.21120 | 2077 ft | 209 kts | 251° |
| 2026-05-06 21:41 | 34.48261 | 135.19369 | 2149 ft | 220 kts | 272° |
| 2026-05-06 21:41 | 34.48732 | 135.17542 | 2347 ft | 240 kts | 304° |
| 2026-05-06 21:42 | 34.49921 | 135.16026 | 2672 ft | 257 kts | 318° |
| 2026-05-06 21:42 | 34.51299 | 135.14604 | 3338 ft | 260 kts | 319° |
| 2026-05-06 21:42 | 34.52689 | 135.13197 | 4048 ft | 262 kts | 319° |
| 2026-05-06 21:42 | 34.54088 | 135.11754 | 4776 ft | 265 kts | 317° |
| 2026-05-06 21:43 | 34.55485 | 135.10284 | 5449 ft | 268 kts | 316° |
| 2026-05-06 21:43 | 34.56891 | 135.08787 | 6182 ft | 270 kts | 316° |
| 2026-05-06 21:43 | 34.58302 | 135.07269 | 6858 ft | 272 kts | 313° |
| 2026-05-06 21:43 | 34.59471 | 135.05482 | 7470 ft | 271 kts | 296° |
| 2026-05-06 21:44 | 34.60177 | 135.03364 | 8126 ft | 271 kts | 284° |
| 2026-05-06 21:44 | 34.60714 | 135.01161 | 8755 ft | 275 kts | 285° |
| 2026-05-06 21:44 | 34.61153 | 134.98900 | 9385 ft | 278 kts | 276° |
| 2026-05-06 21:44 | 34.61313 | 134.96558 | 10025 ft | 280 kts | 272° |
| 2026-05-06 21:45 | 34.61458 | 134.94154 | 10340 ft | 294 kts | 273° |
| 2026-05-06 21:45 | 34.61626 | 134.91613 | 10495 ft | 312 kts | 273° |
| 2026-05-06 21:45 | 34.61776 | 134.89375 | 10625 ft | 326 kts | 274° |
| 2026-05-06 21:46 | 34.61933 | 134.87025 | 10974 ft | 331 kts | 273° |
| 2026-05-06 21:46 | 34.62056 | 134.85173 | 11329 ft | 333 kts | 273° |
| 2026-05-06 21:46 | 34.62242 | 134.82356 | 11849 ft | 336 kts | 273° |
| 2026-05-06 21:47 | 34.62340 | 134.79521 | 12412 ft | 337 kts | 265° |
| 2026-05-06 21:47 | 34.61746 | 134.75855 | 13125 ft | 340 kts | 250° |
| 2026-05-06 21:47 | 34.61101 | 134.74041 | 13493 ft | 341 kts | 243° |
| 2026-05-06 21:47 | 34.60038 | 134.71458 | 13994 ft | 344 kts | 244° |
| 2026-05-06 21:48 | 34.58991 | 134.68831 | 14448 ft | 347 kts | 244° |
| 2026-05-06 21:48 | 34.57943 | 134.66174 | 14899 ft | 350 kts | 244° |
| 2026-05-06 21:48 | 34.56895 | 134.63518 | 15350 ft | 353 kts | 244° |
| 2026-05-06 21:48 | 34.55824 | 134.60813 | 15792 ft | 357 kts | 245° |
| 2026-05-06 21:49 | 34.54743 | 134.58087 | 16209 ft | 360 kts | 245° |